Terminal Aerodrome Forecast
Issued by NWS Corpus Christi, TX

Home | Current Version | Previous Version | Text Only | Print | Product List | Glossary On
Versions: 1 2 3 4 5 6 7 8 9 10 11 12 13 14 15 16 17 18 19 20
358
FTUS44 KCRP 010651 AAB
TAFCRP
TAF AMD
KCRP 010651Z 0107/0206 10009KT P6SM BKN012 BKN250
     FM010900 10006KT 4SM BR BKN009
     FM011500 10010KT 6SM HZ VCSH BKN015 OVC030
     FM011900 12012KT P6SM BKN030
     FM020200 11010KT 5SM HZ BKN015=

USA.gov is the U.S. government's official web portal to all federal, state and local government web resources and services.